METAR Data
IDs: Format: Raw Decoded Include TAF

Data at: 1349 UTC 07 Jul 2020

KUZA 071343Z AUTO 14004KT 7SM -RA SCT009 BKN047 OVC100 25/23 A3007 RMK AO2 P0000 T02500228
KUZA 071328Z AUTO 00000KT 8SM -RA SCT016 BKN045 OVC110 24/23 A3007 RMK AO2 P0000 T02440228
KUZA 071301Z AUTO 08003KT 8SM -RA BKN017 BKN040 OVC090 24/23 A3006 RMK AO2 P0000 T02440228
KUZA 071254Z AUTO 00000KT 7SM -RA SCT015 BKN042 OVC110 24/23 A3006 RMK AO2 RAB41 SLP168 P0000 T02390228
KUZA 071154Z AUTO 00000KT 5SM BR SCT110 23/22 A3006 RMK AO2 SLP166 60005 70026 T02330222 10233 20222 53004
KUZA 071054Z AUTO 00000KT 5SM BR SCT100 23/22 A3005 RMK AO2 SLP165 T02280222
KUZA 070954Z AUTO 00000KT 8SM FEW020 23/22 A3005 RMK AO2 SLP163 T02280217
KUZA 070854Z AUTO 00000KT 8SM OVC021 23/22 A3005 RMK AO2 SLP162 60005 T02280217 56013
KUZA 070754Z AUTO 00000KT 10SM OVC022 23/22 A3006 RMK AO2 SLP168 T02280217
KUZA 070740Z AUTO 00000KT 9SM BKN022 OVC031 23/22 A3006 RMK AO2 T02280217
KUZA 070654Z AUTO 00000KT 8SM SCT025 BKN080 22/22 A3007 RMK AO2 RAB08E26 SLP169 P0005 T02220217
KUZA 070622Z AUTO 00000KT 4SM -RA BR SCT028 BKN044 OVC100 23/22 A3008 RMK AO2 RAB08 P0003 T02280222
KUZA 070618Z AUTO 00000KT 1 1/2SM -RA BR BKN028 BKN044 OVC100 23/22 A3008 RMK AO2 RAB08 P0002 T02280222
KUZA 070611Z AUTO 00000KT 2SM +RA BR BKN029 BKN034 OVC045 23/22 A3008 RMK AO2 RAB08 P0000 T02280222
KUZA 070554Z AUTO 00000KT 10SM BKN030 BKN075 23/22 A3009 RMK AO2 SLP175 T02280217 10250 20222 58002
KUZA 070454Z AUTO 00000KT 9SM CLR 23/22 A3009 RMK AO2 SLP176 T02280217 402940189
KUZA 070354Z AUTO 00000KT 10SM BKN055 OVC080 23/22 A3009 RMK AO2 SLP175 T02280217
KUZA 070254Z AUTO 00000KT 10SM CLR 23/22 A3009 RMK AO2 SLP176 T02280217 53005
KUZA 070154Z AUTO 00000KT 10SM CLR 23/22 A3008 RMK AO2 SLP173 T02330222
KUZA 070136Z AUTO 00000KT 9SM SCT021 23/22 A3008 RMK AO2 T02330222
KUZA 070054Z AUTO 00000KT 10SM SCT008 BKN017 24/22 A3008 RMK AO2 SLP171 T02390222
KUZA 070045Z AUTO 23003KT 9SM SCT008 SCT055 24/22 A3008 RMK AO2 T02390222
KUZA 062354Z AUTO VRB03KT 10SM SCT037 SCT050 25/22 A3008 RMK AO2 SLP172 60003 T02500217 10278 20239 53003
KUZA 062254Z AUTO 13004KT 10SM CLR 25/21 A3007 RMK AO2 SLP172 T02500211
KUZA 062154Z AUTO 16007KT 10SM CLR 26/21 A3006 RMK AO2 SLP168 T02560211
KUZA 062054Z AUTO 00000KT 10SM FEW100 25/22 A3006 RMK AO2 LTG DSNT NW RAB1959E38 SLP169 P0002 60003 T02500217 58006
KUZA 061954Z AUTO 13004KT 10SM FEW019 SCT025 24/21 A3008 RMK AO2 SLP175 T02390211
KUZA 061924Z AUTO 15010G20KT 130V190 10SM SCT020 BKN029 BKN070 24/21 A3009 RMK AO2 LTG DSNT S T02440211
KUZA 061854Z AUTO 00000KT 10SM FEW070 27/24 A3007 RMK AO2 LTG DSNT SE-W SLP169 P0001 T02720239
KUZA 061754Z AUTO VRB04KT 10SM FEW038 FEW075 27/24 A3008 RMK AO2 LTG DSNT S-W RAB1655E44 SLP172 P0018 60018 T02720239 10294 20228 58007
KUZA 061725Z AUTO 21003KT 3SM -RA BR SCT038 BKN070 OVC090 25/23 A3008 RMK AO2 LTG DSNT S-W RAB1655 P0011 T02500233
KUZA 061716Z AUTO 20005KT 1SM -RA BR BKN036 BKN045 OVC070 24/23 A3009 RMK AO2 LTG DSNT S-W RAB1655 P0008 T02440228
KUZA 061710Z AUTO 19008KT 1/2SM +RA FG BKN036 OVC045 24/22 A3010 RMK AO2 LTG DSNT SW RAB1655 P0006 T02440222
KUZA 061704Z AUTO 17007KT 1 1/2SM RA BKN036 OVC043 25/22 A3010 RMK AO2 VIS 3/4V5 LTG DSNT SW RAB1655 P0003 T02500222
KUZA 061654Z AUTO VRB04KT 10SM BKN036 BKN046 OVC060 28/21 A3010 RMK AO2 LTG DSNT SW SLP176 T02830211
KUZA 061651Z AUTO VRB03KT 10SM SCT036 BKN046 OVC060 28/21 A3009 RMK AO2 LTG DSNT SE AND SW
KUZA 061634Z AUTO 12006KT 10SM VCTS SCT036 BKN044 OVC060 28/21 A3010 RMK AO2 LTG DSNT SW T02830206
KUZA 061554Z AUTO 10SM FEW029 SCT038 SCT049 29/22 A3010 RMK AO2 RAB25E37 SLP180 P0000 T02890217
KUZA 061454Z AUTO VRB04KT 10SM SCT024 BKN031 OVC055 28/22 A3011 RMK AO2 SLP179 T02830222 51007
KUZA 061447Z AUTO VRB03KT 10SM BKN024 BKN031 OVC044 27/21 A3011 RMK AO2 T02720211
KUZA 061354Z AUTO VRB04KT 10SM FEW020 28/22 A3010 RMK AO2 SLP177 T02780217
KUZA 061254Z AUTO VRB04KT 9SM CLR 26/22 A3009 RMK AO2 SLP175 T02560217
KUZA 061154Z AUTO 00000KT 7SM CLR 23/21 A3008 RMK AO2 SLP173 T02330206 10244 20189 51012
KUZA 061116Z AUTO 00000KT 3SM BR CLR 21/20 A3007 RMK AO2 T02060200
KUZA 061111Z AUTO 00000KT 1 1/4SM BR CLR 19/19 A3007 RMK AO2 VIS 1/2V3 T01940194
KUZA 061100Z AUTO 00000KT 2SM BR CLR 20/19 A3007 RMK AO2 T02000194
KUZA 061054Z AUTO 00000KT 1/4SM FG CLR 19/19 A3007 RMK AO2 SLP168 T01940189
KUZA 061046Z AUTO 00000KT 3/4SM BR CLR 19/19 A3006 RMK AO2 T01890189
KUZA 061041Z AUTO 00000KT 2 1/2SM BR CLR 19/19 A3006 RMK AO2 T01890189
KUZA 061011Z AUTO 00000KT 1 1/2SM BR CLR 19/19 A3005 RMK AO2 T01940189
KUZA 061009Z AUTO 02003KT 3SM BR CLR 19/19 A3005 RMK AO2 T01940189
KUZA 061005Z AUTO 01003KT 1SM BR CLR 19/19 A3005 RMK AO2 T01940189
KUZA 060956Z AUTO 00000KT 1/2SM FG CLR 19/19 A3005 RMK AO2 T01940189
KUZA 060954Z AUTO 00000KT 1SM BR CLR 19/19 A3005 RMK AO2 VIS 1/4V5 SLP160 T01940189
KUZA 060943Z AUTO 00000KT 3SM BR CLR 21/19 A3004 RMK AO2 T02060194
KUZA 060933Z AUTO 00000KT 1 3/4SM BR CLR 20/19 A3004 RMK AO2 T02000194
KUZA 060916Z AUTO 00000KT 3SM BR CLR 20/19 A3004 RMK AO2 T02000194
KUZA 060906Z AUTO 00000KT 1 1/2SM BR CLR 20/19 A3004 RMK AO2 T02000194
KUZA 060854Z AUTO 00000KT 6SM BR CLR 21/19 A3003 RMK AO2 SLP155 T02060194 55004
KUZA 060754Z AUTO 00000KT 10SM CLR 23/21 A3003 RMK AO2 SLP153 T02280206
KUZA 060654Z AUTO 00000KT 10SM CLR 23/20 A3003 RMK AO2 SLP155 T02330200
KUZA 060554Z AUTO 17004KT 10SM CLR 24/20 A3004 RMK AO2 SLP157 T02440200 10300 20228 50004
KUZA 060454Z AUTO 16003KT 10SM CLR 26/19 A3006 RMK AO2 SLP161 T02560194 403330211
KUZA 060354Z AUTO 00000KT 9SM CLR 24/19 A3004 RMK AO2 SLP156 T02390194
KUZA 060254Z AUTO 00000KT 9SM CLR 27/19 A3003 RMK AO2 SLP154 T02670189 53018
KUZA 060154Z AUTO 18004KT 10SM CLR 28/19 A3001 RMK AO2 SLP145 T02780189